sensor_id;sensor_type;location;lat;lon;timestamp;temperature;humidity
52435;DHT22;38354;52.892;6.148;2023-02-15T04:04:11;0.60;99.90
52435;DHT22;38354;52.892;6.148;2023-02-15T04:06:40;0.60;99.90
52435;DHT22;38354;52.892;6.148;2023-02-15T04:09:06;0.60;99.90
52435;DHT22;38354;52.892;6.148;2023-02-15T04:11:50;0.60;99.90
52435;DHT22;38354;52.892;6.148;2023-02-15T04:14:16;0.50;99.90
52435;DHT22;38354;52.892;6.148;2023-02-15T04:17:00;0.60;99.90
52435;DHT22;38354;52.892;6.148;2023-02-15T04:19:25;0.60;99.90
52435;DHT22;38354;52.892;6.148;2023-02-15T04:22:09;0.60;99.90
52435;DHT22;38354;52.892;6.148;2023-02-15T04:24:53;0.50;99.90
52435;DHT22;38354;52.892;6.148;2023-02-15T04:27:42;0.50;99.90
52435;DHT22;38354;52.892;6.148;2023-02-15T04:30:09;0.50;99.90
52435;DHT22;38354;52.892;6.148;2023-02-15T04:32:36;0.50;99.90
52435;DHT22;38354;52.892;6.148;2023-02-15T04:35:02;0.50;99.90
52435;DHT22;38354;52.892;6.148;2023-02-15T04:37:28;0.50;99.90
52435;DHT22;38354;52.892;6.148;2023-02-15T04:39:54;0.50;99.90
52435;DHT22;38354;52.892;6.148;2023-02-15T04:42:19;0.50;99.90
52435;DHT22;38354;52.892;6.148;2023-02-15T04:44:45;0.50;99.90
52435;DHT22;38354;52.892;6.148;2023-02-15T04:47:10;0.40;99.90
52435;DHT22;38354;52.892;6.148;2023-02-15T04:49:36;0.50;99.90
52435;DHT22;38354;52.892;6.148;2023-02-15T04:52:02;0.40;99.90
52435;DHT22;38354;52.892;6.148;2023-02-15T04:54:27;0.40;99.90
52435;DHT22;38354;52.892;6.148;2023-02-15T04:56:53;0.40;99.90
52435;DHT22;38354;52.892;6.148;2023-02-15T04:59:18;0.40;99.90
52435;DHT22;38354;52.892;6.148;2023-02-15T05:01:44;0.30;99.90
52435;DHT22;38354;52.892;6.148;2023-02-15T05:04:10;0.30;99.90
52435;DHT22;38354;52.892;6.148;2023-02-15T05:06:35;0.40;99.90
52435;DHT22;38354;52.892;6.148;2023-02-15T05:09:01;0.40;99.90
52435;DHT22;38354;52.892;6.148;2023-02-15T05:11:27;0.40;99.90
52435;DHT22;38354;52.892;6.148;2023-02-15T05:13:53;0.40;99.90
52435;DHT22;38354;52.892;6.148;2023-02-15T05:16:18;0.40;99.90
52435;DHT22;38354;52.892;6.148;2023-02-15T05:18:44;0.40;99.90
52435;DHT22;38354;52.892;6.148;2023-02-15T05:21:10;0.40;99.90
52435;DHT22;38354;52.892;6.148;2023-02-15T05:23:36;0.40;99.90
52435;DHT22;38354;52.892;6.148;2023-02-15T05:26:03;0.40;99.90
52435;DHT22;38354;52.892;6.148;2023-02-15T05:28:47;0.40;99.90
52435;DHT22;38354;52.892;6.148;2023-02-15T05:31:14;0.50;99.90
52435;DHT22;38354;52.892;6.148;2023-02-15T05:33:41;0.50;99.90
52435;DHT22;38354;52.892;6.148;2023-02-15T05:36:08;0.50;99.90
52435;DHT22;38354;52.892;6.148;2023-02-15T05:38:34;0.50;99.90
52435;DHT22;38354;52.892;6.148;2023-02-15T05:40:59;0.60;99.90
52435;DHT22;38354;52.892;6.148;2023-02-15T05:43:25;0.60;99.90
52435;DHT22;38354;52.892;6.148;2023-02-15T05:45:53;0.60;99.90
52435;DHT22;38354;52.892;6.148;2023-02-15T05:48:21;0.60;99.90
52435;DHT22;38354;52.892;6.148;2023-02-15T05:50:57;0.60;99.90
52435;DHT22;38354;52.892;6.148;2023-02-15T05:53:23;0.60;99.90
52435;DHT22;38354;52.892;6.148;2023-02-15T05:55:48;0.70;99.90
52435;DHT22;38354;52.892;6.148;2023-02-15T05:58:14;0.70;99.90
52435;DHT22;38354;52.892;6.148;2023-02-15T06:00:39;0.70;99.90
52435;DHT22;38354;52.892;6.148;2023-02-15T06:03:05;0.60;99.90
52435;DHT22;38354;52.892;6.148;2023-02-15T06:05:31;0.70;99.90
52435;DHT22;38354;52.892;6.148;2023-02-15T06:07:56;0.70;99.90
52435;DHT22;38354;52.892;6.148;2023-02-15T06:10:22;0.60;99.90
52435;DHT22;38354;52.892;6.148;2023-02-15T06:12:47;0.70;99.90
52435;DHT22;38354;52.892;6.148;2023-02-15T06:15:13;0.60;99.90
52435;DHT22;38354;52.892;6.148;2023-02-15T06:17:41;0.60;99.90
52435;DHT22;38354;52.892;6.148;2023-02-15T06:20:08;0.60;99.90
52435;DHT22;38354;52.892;6.148;2023-02-15T06:22:34;0.60;99.90
52435;DHT22;38354;52.892;6.148;2023-02-15T06:24:59;0.60;99.90
52435;DHT22;38354;52.892;6.148;2023-02-15T06:27:25;0.60;99.90
52435;DHT22;38354;52.892;6.148;2023-02-15T06:29:51;0.60;99.90
52435;DHT22;38354;52.892;6.148;2023-02-15T06:32:16;0.70;99.90
52435;DHT22;38354;52.892;6.148;2023-02-15T06:34:42;0.60;99.90
52435;DHT22;38354;52.892;6.148;2023-02-15T06:37:08;0.70;99.90
52435;DHT22;38354;52.892;6.148;2023-02-15T06:39:34;0.60;99.90
52435;DHT22;38354;52.892;6.148;2023-02-15T06:41:59;0.60;99.90
52435;DHT22;38354;52.892;6.148;2023-02-15T06:44:25;0.60;99.90
52435;DHT22;38354;52.892;6.148;2023-02-15T06:46:51;0.60;99.90
52435;DHT22;38354;52.892;6.148;2023-02-15T06:49:16;0.60;99.90
52435;DHT22;38354;52.892;6.148;2023-02-15T06:51:42;0.60;99.90
52435;DHT22;38354;52.892;6.148;2023-02-15T06:54:08;0.60;99.90
52435;DHT22;38354;52.892;6.148;2023-02-15T06:56:33;0.60;99.90
52435;DHT22;38354;52.892;6.148;2023-02-15T06:58:59;0.60;99.90
52435;DHT22;38354;52.892;6.148;2023-02-15T07:01:25;0.60;99.90
52435;DHT22;38354;52.892;6.148;2023-02-15T07:03:50;0.60;99.90
52435;DHT22;38354;52.892;6.148;2023-02-15T07:06:16;0.60;99.90
52435;DHT22;38354;52.892;6.148;2023-02-15T07:08:42;0.60;99.90
52435;DHT22;38354;52.892;6.148;2023-02-15T07:11:07;0.60;99.90
52435;DHT22;38354;52.892;6.148;2023-02-15T07:13:51;0.60;99.90
52435;DHT22;38354;52.892;6.148;2023-02-15T07:16:20;0.70;99.90
52435;DHT22;38354;52.892;6.148;2023-02-15T07:18:46;0.70;99.90
52435;DHT22;38354;52.892;6.148;2023-02-15T07:21:11;0.70;99.90
52435;DHT22;38354;52.892;6.148;2023-02-15T07:23:38;0.60;99.90
52435;DHT22;38354;52.892;6.148;2023-02-15T07:26:05;0.70;99.90
52435;DHT22;38354;52.892;6.148;2023-02-15T07:28:32;0.70;99.90
52435;DHT22;38354;52.892;6.148;2023-02-15T07:30:58;0.70;99.90
52435;DHT22;38354;52.892;6.148;2023-02-15T07:33:24;0.80;99.90
52435;DHT22;38354;52.892;6.148;2023-02-15T07:35:50;0.80;99.90
52435;DHT22;38354;52.892;6.148;2023-02-15T07:38:17;0.90;99.90
52435;DHT22;38354;52.892;6.148;2023-02-15T07:40:43;0.90;99.90
52435;DHT22;38354;52.892;6.148;2023-02-15T07:43:12;1.00;99.90
52435;DHT22;38354;52.892;6.148;2023-02-15T07:45:38;1.00;99.90
52435;DHT22;38354;52.892;6.148;2023-02-15T07:48:04;1.00;99.90
52435;DHT22;38354;52.892;6.148;2023-02-15T07:50:31;1.10;99.90
52435;DHT22;38354;52.892;6.148;2023-02-15T07:52:57;1.10;99.90
52435;DHT22;38354;52.892;6.148;2023-02-15T07:55:23;1.10;99.90
52435;DHT22;38354;52.892;6.148;2023-02-15T07:57:50;1.20;99.90
52435;DHT22;38354;52.892;6.148;2023-02-15T08:00:18;1.20;99.90
52435;DHT22;38354;52.892;6.148;2023-02-15T08:02:49;1.20;99.90
52435;DHT22;38354;52.892;6.148;2023-02-15T08:05:39;1.30;99.90
52435;DHT22;38354;52.892;6.148;2023-02-15T08:08:06;1.30;99.90
52435;DHT22;38354;52.892;6.148;2023-02-15T08:10:32;1.40;99.90
52435;DHT22;38354;52.892;6.148;2023-02-15T08:13:24;1.50;99.90
52435;DHT22;38354;52.892;6.148;2023-02-15T08:15:50;1.50;99.90
52435;DHT22;38354;52.892;6.148;2023-02-15T08:18:16;1.60;99.90
52435;DHT22;38354;52.892;6.148;2023-02-15T08:20:41;1.70;99.90
52435;DHT22;38354;52.892;6.148;2023-02-15T08:23:07;1.70;99.90
52435;DHT22;38354;52.892;6.148;2023-02-15T08:25:33;1.80;99.90
52435;DHT22;38354;52.892;6.148;2023-02-15T08:27:58;1.80;99.90
52435;DHT22;38354;52.892;6.148;2023-02-15T08:30:24;1.90;99.90
52435;DHT22;38354;52.892;6.148;2023-02-15T08:32:49;2.00;99.90
52435;DHT22;38354;52.892;6.148;2023-02-15T08:35:15;2.10;99.90
52435;DHT22;38354;52.892;6.148;2023-02-15T08:37:40;2.20;99.90
52435;DHT22;38354;52.892;6.148;2023-02-15T08:40:07;2.20;99.90
52435;DHT22;38354;52.892;6.148;2023-02-15T08:42:33;2.30;99.90
52435;DHT22;38354;52.892;6.148;2023-02-15T08:44:59;2.40;99.90
52435;DHT22;38354;52.892;6.148;2023-02-15T08:47:24;2.40;99.90
52435;DHT22;38354;52.892;6.148;2023-02-15T08:49:50;2.50;99.90
52435;DHT22;38354;52.892;6.148;2023-02-15T08:52:16;2.50;99.90
52435;DHT22;38354;52.892;6.148;2023-02-15T08:54:42;2.60;99.90
52435;DHT22;38354;52.892;6.148;2023-02-15T08:57:08;2.70;99.90
52435;DHT22;38354;52.892;6.148;2023-02-15T08:59:34;2.70;99.90
52435;DHT22;38354;52.892;6.148;2023-02-15T09:02:00;2.80;99.90
52435;DHT22;38354;52.892;6.148;2023-02-15T09:04:26;3.00;99.90
52435;DHT22;38354;52.892;6.148;2023-02-15T09:06:52;3.40;99.90
52435;DHT22;38354;52.892;6.148;2023-02-15T09:09:21;4.00;99.90
52435;DHT22;38354;52.892;6.148;2023-02-15T09:11:49;4.60;99.90
52435;DHT22;38354;52.892;6.148;2023-02-15T09:14:32;5.00;99.90
52435;DHT22;38354;52.892;6.148;2023-02-15T09:16:59;5.50;99.90
52435;DHT22;38354;52.892;6.148;2023-02-15T09:19:41;6.00;99.90
52435;DHT22;38354;52.892;6.148;2023-02-15T09:22:07;6.50;99.90
52435;DHT22;38354;52.892;6.148;2023-02-15T09:24:32;6.70;99.90
52435;DHT22;38354;52.892;6.148;2023-02-15T09:26:59;6.90;99.90
52435;DHT22;38354;52.892;6.148;2023-02-15T09:29:25;7.20;99.90
52435;DHT22;38354;52.892;6.148;2023-02-15T09:31:51;7.40;99.90
52435;DHT22;38354;52.892;6.148;2023-02-15T09:34:20;7.50;99.90
52435;DHT22;38354;52.892;6.148;2023-02-15T09:36:47;7.70;99.90
52435;DHT22;38354;52.892;6.148;2023-02-15T09:39:17;7.70;99.90
52435;DHT22;38354;52.892;6.148;2023-02-15T09:41:58;7.70;99.90
52435;DHT22;38354;52.892;6.148;2023-02-15T09:58:36;7.20;99.90
52435;DHT22;38354;52.892;6.148;2023-02-15T10:01:36;7.40;99.90
52435;DHT22;38354;52.892;6.148;2023-02-15T10:12:54;7.10;99.90
52435;DHT22;38354;52.892;6.148;2023-02-15T10:15:38;7.10;99.90
52435;DHT22;38354;52.892;6.148;2023-02-15T10:18:33;7.00;99.90
52435;DHT22;38354;52.892;6.148;2023-02-15T10:21:19;6.90;99.90
52435;DHT22;38354;52.892;6.148;2023-02-15T10:26:31;7.10;99.90
52435;DHT22;38354;52.892;6.148;2023-02-15T10:31:51;7.00;99.90
52435;DHT22;38354;52.892;6.148;2023-02-15T10:34:38;7.00;99.90
52435;DHT22;38354;52.892;6.148;2023-02-15T10:40:20;7.00;99.90
52435;DHT22;38354;52.892;6.148;2023-02-15T10:42:57;7.10;99.90
52435;DHT22;38354;52.892;6.148;2023-02-15T10:45:49;7.00;99.90
52435;DHT22;38354;52.892;6.148;2023-02-15T10:54:16;7.30;99.90
52435;DHT22;38354;52.892;6.148;2023-02-15T10:59:50;7.70;99.90
52435;DHT22;38354;52.892;6.148;2023-02-15T11:02:44;7.80;99.90
52435;DHT22;38354;52.892;6.148;2023-02-15T11:05:31;8.00;99.90
52435;DHT22;38354;52.892;6.148;2023-02-15T11:08:00;8.30;99.90
52435;DHT22;38354;52.892;6.148;2023-02-15T11:10:30;8.40;99.90
52435;DHT22;38354;52.892;6.148;2023-02-15T11:13:04;8.60;99.90
52435;DHT22;38354;52.892;6.148;2023-02-15T11:15:55;8.90;99.90
52435;DHT22;38354;52.892;6.148;2023-02-15T11:18:37;9.00;99.90
52435;DHT22;38354;52.892;6.148;2023-02-15T11:21:17;9.10;99.90
52435;DHT22;38354;52.892;6.148;2023-02-15T11:23:46;9.10;99.90
52435;DHT22;38354;52.892;6.148;2023-02-15T11:26:34;9.20;99.90
52435;DHT22;38354;52.892;6.148;2023-02-15T11:31:55;9.30;99.90
52435;DHT22;38354;52.892;6.148;2023-02-15T11:36:51;9.70;99.90
52435;DHT22;38354;52.892;6.148;2023-02-15T11:39:19;9.90;99.90
52435;DHT22;38354;52.892;6.148;2023-02-15T11:41:53;10.00;99.90
52435;DHT22;38354;52.892;6.148;2023-02-15T11:44:30;10.10;99.90
52435;DHT22;38354;52.892;6.148;2023-02-15T11:46:58;10.10;99.90
52435;DHT22;38354;52.892;6.148;2023-02-15T11:49:34;10.20;99.90
52435;DHT22;38354;52.892;6.148;2023-02-15T11:52:14;10.30;99.90
52435;DHT22;38354;52.892;6.148;2023-02-15T11:54:49;10.40;99.90
52435;DHT22;38354;52.892;6.148;2023-02-15T11:57:42;10.50;99.90
52435;DHT22;38354;52.892;6.148;2023-02-15T12:03:03;10.70;99.90
52435;DHT22;38354;52.892;6.148;2023-02-15T12:05:34;11.00;99.90
52435;DHT22;38354;52.892;6.148;2023-02-15T12:08:19;11.20;99.90
52435;DHT22;38354;52.892;6.148;2023-02-15T12:13:32;11.70;99.90
52435;DHT22;38354;52.892;6.148;2023-02-15T12:16:04;11.80;99.90
52435;DHT22;38354;52.892;6.148;2023-02-15T12:18:41;12.00;99.90
52435;DHT22;38354;52.892;6.148;2023-02-15T12:21:16;12.10;99.90
52435;DHT22;38354;52.892;6.148;2023-02-15T12:23:55;12.10;99.90
52435;DHT22;38354;52.892;6.148;2023-02-15T12:26:29;12.00;99.90
52435;DHT22;38354;52.892;6.148;2023-02-15T12:28:59;12.10;99.90
52435;DHT22;38354;52.892;6.148;2023-02-15T12:31:37;12.10;99.90
52435;DHT22;38354;52.892;6.148;2023-02-15T12:34:10;11.90;99.90
52435;DHT22;38354;52.892;6.148;2023-02-15T12:36:43;11.70;99.90
52435;DHT22;38354;52.892;6.148;2023-02-15T12:41:37;11.40;99.90
52435;DHT22;38354;52.892;6.148;2023-02-15T12:44:18;11.30;99.90
52435;DHT22;38354;52.892;6.148;2023-02-15T12:47:26;11.00;99.90
52435;DHT22;38354;52.892;6.148;2023-02-15T12:50:08;11.00;99.90
52435;DHT22;38354;52.892;6.148;2023-02-15T12:52:42;10.90;99.90
52435;DHT22;38354;52.892;6.148;2023-02-15T12:55:22;11.00;99.90
52435;DHT22;38354;52.892;6.148;2023-02-15T12:57:48;11.00;99.90
52435;DHT22;38354;52.892;6.148;2023-02-15T13:02:51;11.10;99.90
52435;DHT22;38354;52.892;6.148;2023-02-15T13:07:51;11.10;99.90
52435;DHT22;38354;52.892;6.148;2023-02-15T13:12:55;11.00;99.90
52435;DHT22;38354;52.892;6.148;2023-02-15T13:15:27;11.00;99.90
52435;DHT22;38354;52.892;6.148;2023-02-15T13:17:56;10.90;99.90
52435;DHT22;38354;52.892;6.148;2023-02-15T13:20:22;10.90;99.90
52435;DHT22;38354;52.892;6.148;2023-02-15T13:22:50;10.70;99.90
52435;DHT22;38354;52.892;6.148;2023-02-15T13:25:20;10.70;99.90
52435;DHT22;38354;52.892;6.148;2023-02-15T13:27:51;10.70;99.90
52435;DHT22;38354;52.892;6.148;2023-02-15T13:30:36;10.70;99.90
52435;DHT22;38354;52.892;6.148;2023-02-15T13:33:13;10.80;99.90
52435;DHT22;38354;52.892;6.148;2023-02-15T13:35:47;10.80;99.90
52435;DHT22;38354;52.892;6.148;2023-02-15T13:38:19;10.90;99.90
52435;DHT22;38354;52.892;6.148;2023-02-15T13:40:55;11.10;99.90
52435;DHT22;38354;52.892;6.148;2023-02-15T13:51:41;11.40;99.90
52435;DHT22;38354;52.892;6.148;2023-02-15T13:54:35;11.30;99.90
52435;DHT22;38354;52.892;6.148;2023-02-15T14:00:03;11.20;99.90
52435;DHT22;38354;52.892;6.148;2023-02-15T14:03:04;11.30;99.90
52435;DHT22;38354;52.892;6.148;2023-02-15T14:11:21;11.30;99.90
52435;DHT22;38354;52.892;6.148;2023-02-15T14:19:13;11.10;99.90
52435;DHT22;38354;52.892;6.148;2023-02-15T14:24:27;11.10;99.90
52435;DHT22;38354;52.892;6.148;2023-02-15T14:32:14;11.00;99.90
52435;DHT22;38354;52.892;6.148;2023-02-15T14:34:44;11.00;99.90
52435;DHT22;38354;52.892;6.148;2023-02-15T14:37:12;11.00;99.90
52435;DHT22;38354;52.892;6.148;2023-02-15T14:45:50;11.00;99.90
52435;DHT22;38354;52.892;6.148;2023-02-15T14:50:52;10.90;99.90
52435;DHT22;38354;52.892;6.148;2023-02-15T14:56:17;10.80;99.90
52435;DHT22;38354;52.892;6.148;2023-02-15T15:01:15;10.70;99.90
52435;DHT22;38354;52.892;6.148;2023-02-15T15:03:53;10.70;99.90
52435;DHT22;38354;52.892;6.148;2023-02-15T15:06:29;10.70;99.90
52435;DHT22;38354;52.892;6.148;2023-02-15T15:09:00;10.70;99.90
52435;DHT22;38354;52.892;6.148;2023-02-15T15:13:59;10.70;99.90
52435;DHT22;38354;52.892;6.148;2023-02-15T15:19:01;10.70;99.90
52435;DHT22;38354;52.892;6.148;2023-02-15T15:49:08;10.20;99.90
52435;DHT22;38354;52.892;6.148;2023-02-15T15:51:40;10.20;99.90
52435;DHT22;38354;52.892;6.148;2023-02-15T15:54:11;10.20;99.90
52435;DHT22;38354;52.892;6.148;2023-02-15T15:56:38;10.10;99.90
52435;DHT22;38354;52.892;6.148;2023-02-15T15:59:06;10.10;99.90
52435;DHT22;38354;52.892;6.148;2023-02-15T16:01:41;10.00;99.90
52435;DHT22;38354;52.892;6.148;2023-02-15T16:04:12;10.00;99.90
52435;DHT22;38354;52.892;6.148;2023-02-15T16:06:39;9.90;99.90
52435;DHT22;38354;52.892;6.148;2023-02-15T16:11:39;9.80;99.90
52435;DHT22;38354;52.892;6.148;2023-02-15T16:14:14;9.70;99.90
52435;DHT22;38354;52.892;6.148;2023-02-15T16:16:41;9.70;99.90
52435;DHT22;38354;52.892;6.148;2023-02-15T16:19:19;9.60;99.90
52435;DHT22;38354;52.892;6.148;2023-02-15T16:21:47;9.50;99.90
52435;DHT22;38354;52.892;6.148;2023-02-15T16:24:28;9.50;99.90
52435;DHT22;38354;52.892;6.148;2023-02-15T16:29:55;9.40;99.90
52435;DHT22;38354;52.892;6.148;2023-02-15T16:32:25;9.30;99.90
52435;DHT22;38354;52.892;6.148;2023-02-15T16:34:56;9.30;99.90
52435;DHT22;38354;52.892;6.148;2023-02-15T16:37:33;9.30;99.90
52435;DHT22;38354;52.892;6.148;2023-02-15T16:39:59;9.20;99.90
52435;DHT22;38354;52.892;6.148;2023-02-15T16:42:25;9.20;99.90
52435;DHT22;38354;52.892;6.148;2023-02-15T16:47:29;9.00;99.90
52435;DHT22;38354;52.892;6.148;2023-02-15T16:50:00;9.00;99.90
52435;DHT22;38354;52.892;6.148;2023-02-15T16:52:27;9.00;99.90
52435;DHT22;38354;52.892;6.148;2023-02-15T16:54:59;9.00;99.90
52435;DHT22;38354;52.892;6.148;2023-02-15T16:57:28;8.90;99.90
52435;DHT22;38354;52.892;6.148;2023-02-15T17:00:00;8.80;99.90
52435;DHT22;38354;52.892;6.148;2023-02-15T17:02:29;8.80;99.90
52435;DHT22;38354;52.892;6.148;2023-02-15T17:05:05;8.70;99.90
52435;DHT22;38354;52.892;6.148;2023-02-15T17:07:32;8.60;99.90
52435;DHT22;38354;52.892;6.148;2023-02-15T17:09:59;8.60;99.90
52435;DHT22;38354;52.892;6.148;2023-02-15T17:12:55;8.50;99.90
52435;DHT22;38354;52.892;6.148;2023-02-15T17:15:34;8.50;99.90
52435;DHT22;38354;52.892;6.148;2023-02-15T17:18:15;8.40;99.90
52435;DHT22;38354;52.892;6.148;2023-02-15T17:20:42;8.40;99.90
52435;DHT22;38354;52.892;6.148;2023-02-15T17:23:34;8.40;99.90
52435;DHT22;38354;52.892;6.148;2023-02-15T17:26:10;8.30;99.90
52435;DHT22;38354;52.892;6.148;2023-02-15T17:28:36;8.30;99.90
52435;DHT22;38354;52.892;6.148;2023-02-15T17:31:06;8.30;99.90
52435;DHT22;38354;52.892;6.148;2023-02-15T17:36:18;8.30;99.90
52435;DHT22;38354;52.892;6.148;2023-02-15T17:39:11;8.30;99.90
52435;DHT22;38354;52.892;6.148;2023-02-15T17:41:43;8.20;99.90
52435;DHT22;38354;52.892;6.148;2023-02-15T17:44:09;8.20;99.90
52435;DHT22;38354;52.892;6.148;2023-02-15T17:46:39;8.20;99.90
52435;DHT22;38354;52.892;6.148;2023-02-15T17:49:06;8.20;99.90
52435;DHT22;38354;52.892;6.148;2023-02-15T17:51:32;8.20;99.90
52435;DHT22;38354;52.892;6.148;2023-02-15T17:54:03;8.10;99.90
52435;DHT22;38354;52.892;6.148;2023-02-15T17:56:48;8.10;99.90
52435;DHT22;38354;52.892;6.148;2023-02-15T17:59:13;8.10;99.90
52435;DHT22;38354;52.892;6.148;2023-02-15T18:01:49;8.10;99.90
52435;DHT22;38354;52.892;6.148;2023-02-15T18:04:34;8.10;99.90
52435;DHT22;38354;52.892;6.148;2023-02-15T18:07:20;8.10;99.90
52435;DHT22;38354;52.892;6.148;2023-02-15T18:10:16;8.10;99.90
52435;DHT22;38354;52.892;6.148;2023-02-15T18:13:00;8.00;99.90
52435;DHT22;38354;52.892;6.148;2023-02-15T18:15:26;8.00;99.90
52435;DHT22;38354;52.892;6.148;2023-02-15T18:17:52;8.00;99.90
52435;DHT22;38354;52.892;6.148;2023-02-15T18:20:21;7.90;99.90
52435;DHT22;38354;52.892;6.148;2023-02-15T18:22:50;7.90;99.90
52435;DHT22;38354;52.892;6.148;2023-02-15T18:25:18;7.90;99.90
52435;DHT22;38354;52.892;6.148;2023-02-15T18:27:44;7.90;99.90
52435;DHT22;38354;52.892;6.148;2023-02-15T18:30:15;7.80;99.90
52435;DHT22;38354;52.892;6.148;2023-02-15T18:32:41;7.80;99.90
52435;DHT22;38354;52.892;6.148;2023-02-15T18:35:16;7.80;99.90
52435;DHT22;38354;52.892;6.148;2023-02-15T18:37:42;7.80;99.90
52435;DHT22;38354;52.892;6.148;2023-02-15T18:40:16;7.80;99.90
52435;DHT22;38354;52.892;6.148;2023-02-15T18:42:43;7.70;99.90
52435;DHT22;38354;52.892;6.148;2023-02-15T18:45:22;7.80;99.90
52435;DHT22;38354;52.892;6.148;2023-02-15T18:47:49;7.80;99.90
52435;DHT22;38354;52.892;6.148;2023-02-15T18:50:18;7.80;99.90
52435;DHT22;38354;52.892;6.148;2023-02-15T18:52:48;7.80;99.90
52435;DHT22;38354;52.892;6.148;2023-02-15T18:55:25;7.80;99.90
52435;DHT22;38354;52.892;6.148;2023-02-15T18:57:54;7.80;99.90
52435;DHT22;38354;52.892;6.148;2023-02-15T19:00:27;7.80;99.90
52435;DHT22;38354;52.892;6.148;2023-02-15T19:02:53;7.80;99.90
52435;DHT22;38354;52.892;6.148;2023-02-15T19:05:20;7.80;99.90
52435;DHT22;38354;52.892;6.148;2023-02-15T19:07:47;7.80;99.90
52435;DHT22;38354;52.892;6.148;2023-02-15T19:10:16;7.80;99.90
52435;DHT22;38354;52.892;6.148;2023-02-15T19:12:43;7.80;99.90
52435;DHT22;38354;52.892;6.148;2023-02-15T19:15:21;7.80;99.90
52435;DHT22;38354;52.892;6.148;2023-02-15T19:17:47;7.70;99.90
52435;DHT22;38354;52.892;6.148;2023-02-15T19:20:21;7.80;99.90
52435;DHT22;38354;52.892;6.148;2023-02-15T19:22:49;7.80;99.90
52435;DHT22;38354;52.892;6.148;2023-02-15T19:25:22;7.80;99.90
52435;DHT22;38354;52.892;6.148;2023-02-15T19:27:48;7.90;99.90
52435;DHT22;38354;52.892;6.148;2023-02-15T19:30:26;7.80;99.90
52435;DHT22;38354;52.892;6.148;2023-02-15T19:32:53;7.90;99.90
52435;DHT22;38354;52.892;6.148;2023-02-15T19:35:21;7.90;99.90
52435;DHT22;38354;52.892;6.148;2023-02-15T19:37:51;7.90;99.90
52435;DHT22;38354;52.892;6.148;2023-02-15T19:40:21;7.90;99.90
52435;DHT22;38354;52.892;6.148;2023-02-15T19:42:47;7.90;99.90
52435;DHT22;38354;52.892;6.148;2023-02-15T19:45:31;7.90;99.90
52435;DHT22;38354;52.892;6.148;2023-02-15T19:48:00;7.90;99.90
52435;DHT22;38354;52.892;6.148;2023-02-15T19:50:30;7.90;99.90
52435;DHT22;38354;52.892;6.148;2023-02-15T19:52:57;8.00;99.90
52435;DHT22;38354;52.892;6.148;2023-02-15T19:55:25;8.00;99.90
52435;DHT22;38354;52.892;6.148;2023-02-15T19:57:52;8.00;99.90
52435;DHT22;38354;52.892;6.148;2023-02-15T20:00:21;8.00;99.90
52435;DHT22;38354;52.892;6.148;2023-02-15T20:02:47;8.00;99.90
52435;DHT22;38354;52.892;6.148;2023-02-15T20:05:13;8.10;99.90
52435;DHT22;38354;52.892;6.148;2023-02-15T20:07:41;8.00;99.90
52435;DHT22;38354;52.892;6.148;2023-02-15T20:10:29;8.10;99.90
52435;DHT22;38354;52.892;6.148;2023-02-15T20:12:56;8.00;99.90
52435;DHT22;38354;52.892;6.148;2023-02-15T20:15:30;8.00;99.90
52435;DHT22;38354;52.892;6.148;2023-02-15T20:17:57;8.00;99.90
52435;DHT22;38354;52.892;6.148;2023-02-15T20:20:30;8.00;99.90
52435;DHT22;38354;52.892;6.148;2023-02-15T20:22:57;8.00;99.90
52435;DHT22;38354;52.892;6.148;2023-02-15T20:25:29;8.00;99.90
52435;DHT22;38354;52.892;6.148;2023-02-15T20:27:55;7.90;99.90
52435;DHT22;38354;52.892;6.148;2023-02-15T20:30:28;8.00;99.90
52435;DHT22;38354;52.892;6.148;2023-02-15T20:32:54;8.00;99.90
52435;DHT22;38354;52.892;6.148;2023-02-15T20:35:22;8.00;99.90
52435;DHT22;38354;52.892;6.148;2023-02-15T20:37:54;7.90;99.90
52435;DHT22;38354;52.892;6.148;2023-02-15T20:40:26;7.90;99.90
52435;DHT22;38354;52.892;6.148;2023-02-15T20:42:52;7.90;99.90
52435;DHT22;38354;52.892;6.148;2023-02-15T20:45:23;7.80;99.90
52435;DHT22;38354;52.892;6.148;2023-02-15T20:47:50;7.70;99.90
52435;DHT22;38354;52.892;6.148;2023-02-15T20:52:43;7.60;99.90
52435;DHT22;38354;52.892;6.148;2023-02-15T20:55:13;7.60;99.90
52435;DHT22;38354;52.892;6.148;2023-02-15T20:57:39;7.60;99.90
52435;DHT22;38354;52.892;6.148;2023-02-15T21:00:07;7.60;99.90
52435;DHT22;38354;52.892;6.148;2023-02-15T21:02:36;7.50;99.90
52435;DHT22;38354;52.892;6.148;2023-02-15T21:05:04;7.50;99.90
52435;DHT22;38354;52.892;6.148;2023-02-15T21:07:30;7.50;99.90
52435;DHT22;38354;52.892;6.148;2023-02-15T21:09:55;7.50;99.90
52435;DHT22;38354;52.892;6.148;2023-02-15T21:12:21;7.50;99.90
52435;DHT22;38354;52.892;6.148;2023-02-15T21:14:47;7.50;99.90
52435;DHT22;38354;52.892;6.148;2023-02-15T21:17:15;7.50;99.90
52435;DHT22;38354;52.892;6.148;2023-02-15T21:19:41;7.50;99.90
52435;DHT22;38354;52.892;6.148;2023-02-15T21:22:11;7.50;99.90
52435;DHT22;38354;52.892;6.148;2023-02-15T21:24:37;7.50;99.90
52435;DHT22;38354;52.892;6.148;2023-02-15T21:27:05;7.50;99.90
52435;DHT22;38354;52.892;6.148;2023-02-15T21:29:34;7.50;99.90
52435;DHT22;38354;52.892;6.148;2023-02-15T21:32:00;7.40;99.90
52435;DHT22;38354;52.892;6.148;2023-02-15T21:34:28;7.40;99.90
52435;DHT22;38354;52.892;6.148;2023-02-15T21:36:53;7.40;99.90
52435;DHT22;38354;52.892;6.148;2023-02-15T21:39:21;7.40;99.90
52435;DHT22;38354;52.892;6.148;2023-02-15T21:41:49;7.40;99.90
52435;DHT22;38354;52.892;6.148;2023-02-15T21:44:34;7.30;99.90
52435;DHT22;38354;52.892;6.148;2023-02-15T21:47:27;7.30;99.90
52435;DHT22;38354;52.892;6.148;2023-02-15T21:50:14;7.30;99.90
52435;DHT22;38354;52.892;6.148;2023-02-15T21:52:59;7.30;99.90
52435;DHT22;38354;52.892;6.148;2023-02-15T21:55:25;7.30;99.90
52435;DHT22;38354;52.892;6.148;2023-02-15T21:57:50;7.20;99.90
52435;DHT22;38354;52.892;6.148;2023-02-15T22:00:19;7.30;99.90
52435;DHT22;38354;52.892;6.148;2023-02-15T22:02:46;7.30;99.90
52435;DHT22;38354;52.892;6.148;2023-02-15T22:05:15;7.20;99.90
52435;DHT22;38354;52.892;6.148;2023-02-15T22:07:41;7.20;99.90
52435;DHT22;38354;52.892;6.148;2023-02-15T22:10:07;7.20;99.90
52435;DHT22;38354;52.892;6.148;2023-02-15T22:12:33;7.20;99.90
52435;DHT22;38354;52.892;6.148;2023-02-15T22:14:58;7.20;99.90
52435;DHT22;38354;52.892;6.148;2023-02-15T22:17:26;7.20;99.90
52435;DHT22;38354;52.892;6.148;2023-02-15T22:19:55;7.20;99.90
52435;DHT22;38354;52.892;6.148;2023-02-15T22:22:21;7.20;99.90
52435;DHT22;38354;52.892;6.148;2023-02-15T22:24:47;7.20;99.90
52435;DHT22;38354;52.892;6.148;2023-02-15T22:27:22;7.20;99.90
52435;DHT22;38354;52.892;6.148;2023-02-15T22:29:50;7.10;99.90
52435;DHT22;38354;52.892;6.148;2023-02-15T22:32:18;7.10;99.90
52435;DHT22;38354;52.892;6.148;2023-02-15T22:34:45;7.10;99.90
52435;DHT22;38354;52.892;6.148;2023-02-15T22:37:11;7.10;99.90
52435;DHT22;38354;52.892;6.148;2023-02-15T22:39:37;7.10;99.90